Time;durP1;ratioP1;P1;durP2;ratioP2;P2;SDS_P1;SDS_P2;PMS_P1;PMS_P2;Temp;Humidity;BMP_temperature;BMP_pressure;BME280_temperature;BME280_humidity;BME280_pressure;Samples;Min_cycle;Max_cycle;Signal;HPM_P1;HPM_P2
2023/09/01 00:00:46;;;;;;;8.10;7.43;;;11.40;92.30;;;;;;5019983;28;20374;-70
2023/09/01 00:03:13;;;;;;;7.27;6.47;;;11.40;92.20;;;;;;5013953;28;20292;-70
2023/09/01 00:05:38;;;;;;;8.53;7.43;;;11.40;92.40;;;;;;5026654;28;20287;-70
2023/09/01 00:08:05;;;;;;;8.47;7.77;;;11.30;92.40;;;;;;5024516;28;20308;-70
2023/09/01 00:10:31;;;;;;;8.30;7.60;;;11.30;92.30;;;;;;5013917;28;20178;-70
2023/09/01 00:12:57;;;;;;;8.47;7.37;;;11.20;92.30;;;;;;5019170;28;20687;-70
2023/09/01 00:15:23;;;;;;;8.37;7.40;;;11.20;92.30;;;;;;5018100;28;20405;-70
2023/09/01 00:17:49;;;;;;;7.30;6.70;;;11.20;92.20;;;;;;5018369;28;20323;-70
2023/09/01 00:20:15;;;;;;;8.10;7.07;;;11.10;92.40;;;;;;5016199;28;20044;-70
2023/09/01 00:22:40;;;;;;;7.73;7.03;;;11.10;92.40;;;;;;5017185;28;20041;-70
2023/09/01 00:25:07;;;;;;;7.50;6.93;;;11.10;92.60;;;;;;4997789;28;20462;-70
2023/09/01 00:27:32;;;;;;;7.67;6.93;;;11.10;92.70;;;;;;5010806;28;20494;-70
2023/09/01 00:29:58;;;;;;;7.17;6.27;;;11.10;92.60;;;;;;4997731;28;20292;-70
2023/09/01 00:32:24;;;;;;;9.97;6.83;;;11.00;92.60;;;;;;4998753;28;20599;-70
2023/09/01 00:34:56;;;;;;;7.63;6.70;;;11.00;92.80;;;;;;5014650;28;20059;-69
2023/09/01 00:37:25;;;;;;;6.70;6.00;;;11.00;92.70;;;;;;5019944;28;20120;-69
2023/09/01 00:39:51;;;;;;;8.13;7.33;;;11.10;93.00;;;;;;5021083;28;20287;-69
2023/09/01 00:42:17;;;;;;;7.80;7.00;;;11.10;93.10;;;;;;5020271;28;20284;-69
2023/09/01 00:44:43;;;;;;;9.03;8.17;;;11.10;93.10;;;;;;5017604;28;20045;-70
2023/09/01 00:47:09;;;;;;;7.57;6.97;;;11.10;93.10;;;;;;4996107;28;20046;-70
2023/09/01 00:49:38;;;;;;;9.07;8.17;;;11.10;93.00;;;;;;5014056;28;20047;-70
2023/09/01 00:52:04;;;;;;;9.50;8.70;;;11.10;93.10;;;;;;5014032;28;20055;-70
2023/09/01 00:54:31;;;;;;;6.27;5.53;;;11.10;93.10;;;;;;4984808;28;20303;-70
2023/09/01 00:56:57;;;;;;;7.93;7.23;;;11.10;93.10;;;;;;5026603;28;20296;-70
2023/09/01 00:59:23;;;;;;;9.83;8.30;;;11.10;93.10;;;;;;5013318;28;20292;-70
2023/09/01 01:01:50;;;;;;;9.37;8.57;;;11.00;93.00;;;;;;5020581;28;20776;-70
2023/09/01 01:04:17;;;;;;;8.83;8.10;;;11.00;93.00;;;;;;5020660;28;20376;-70
2023/09/01 01:06:50;;;;;;;7.57;5.57;;;11.00;93.10;;;;;;5019074;28;20296;-70
2023/09/01 01:09:43;;;;;;;10.47;9.57;;;10.90;93.10;;;;;;5011164;28;20298;-70
2023/09/01 01:12:48;;;;;;;8.57;7.77;;;11.00;93.20;;;;;;5035613;28;20289;-70
2023/09/01 01:15:15;;;;;;;8.87;8.17;;;10.90;93.10;;;;;;4975570;28;20824;-70
2023/09/01 01:17:45;;;;;;;8.20;7.50;;;10.90;93.40;;;;;;5015463;28;20383;-70
2023/09/01 01:20:16;;;;;;;9.37;8.57;;;10.90;93.50;;;;;;5030385;28;20303;-70
2023/09/01 01:22:48;;;;;;;10.30;9.40;;;10.90;93.60;;;;;;5010066;28;20284;-70
2023/09/01 01:25:14;;;;;;;10.53;9.63;;;10.80;93.50;;;;;;5012867;28;20712;-70
2023/09/01 01:27:42;;;;;;;10.40;9.50;;;10.80;93.50;;;;;;5010537;28;20389;-70
2023/09/01 01:30:09;;;;;;;10.70;9.83;;;10.80;93.50;;;;;;5014783;28;20323;-70
2023/09/01 01:32:36;;;;;;;9.23;8.47;;;10.70;93.60;;;;;;5012280;28;20276;-70
2023/09/01 01:35:46;;;;;;;9.43;8.63;;;10.70;93.70;;;;;;5000967;28;20780;-70
2023/09/01 01:38:21;;;;;;;7.20;6.30;;;10.70;93.80;;;;;;4992337;28;20687;-70
2023/09/01 01:40:49;;;;;;;10.68;8.15;;;10.70;94.10;;;;;;5010198;28;20343;-70
2023/09/01 01:43:21;;;;;;;9.33;8.40;;;10.70;94.20;;;;;;5009313;28;20053;-70
2023/09/01 01:45:47;;;;;;;13.43;11.23;;;10.70;94.20;;;;;;5009441;28;20371;-70
2023/09/01 01:48:13;;;;;;;13.03;11.50;;;10.70;94.40;;;;;;5010770;28;20272;-70
2023/09/01 01:50:41;;;;;;;9.50;8.53;;;10.70;94.40;;;;;;5007776;28;20335;-70
2023/09/01 01:53:07;;;;;;;10.90;10.03;;;10.70;94.40;;;;;;5010777;28;20311;-70
2023/09/01 01:55:33;;;;;;;8.30;7.47;;;10.70;94.50;;;;;;5010853;28;20699;-70
2023/09/01 01:57:59;;;;;;;11.60;10.50;;;10.70;94.50;;;;;;5015789;28;20072;-70
2023/09/01 02:00:27;;;;;;;12.47;11.57;;;10.70;94.60;;;;;;5010893;28;20323;-70
2023/09/01 02:02:54;;;;;;;15.37;14.33;;;10.70;94.80;;;;;;5010495;28;20120;-70
2023/09/01 02:05:19;;;;;;;12.07;10.87;;;10.70;94.90;;;;;;5011990;28;20279;-70
2023/09/01 02:07:45;;;;;;;15.33;14.23;;;10.70;94.90;;;;;;4998254;28;20292;-70
2023/09/01 02:10:11;;;;;;;11.30;10.40;;;10.70;94.90;;;;;;4994524;28;20049;-70
2023/09/01 02:12:37;;;;;;;13.00;12.00;;;10.70;94.80;;;;;;5015021;28;20124;-70
2023/09/01 02:15:03;;;;;;;11.23;10.43;;;10.60;94.90;;;;;;5020491;28;20067;-70
2023/09/01 02:17:29;;;;;;;12.68;11.55;;;10.60;95.00;;;;;;5024635;28;20121;-70
2023/09/01 02:19:56;;;;;;;10.40;9.57;;;10.60;95.10;;;;;;5009190;28;20120;-70
2023/09/01 02:22:22;;;;;;;11.03;10.13;;;10.60;95.00;;;;;;5014680;28;20044;-70
2023/09/01 02:24:48;;;;;;;9.93;9.03;;;10.50;95.10;;;;;;5014517;28;20287;-70
2023/09/01 02:27:13;;;;;;;8.97;8.17;;;10.50;95.00;;;;;;5014019;28;20633;-70
2023/09/01 02:29:39;;;;;;;9.83;8.93;;;10.40;95.00;;;;;;5013215;28;20045;-70
2023/09/01 02:32:06;;;;;;;8.30;7.60;;;10.40;95.00;;;;;;5019673;28;20045;-70
2023/09/01 02:34:32;;;;;;;10.70;7.65;;;10.30;95.00;;;;;;5014213;28;20271;-70
2023/09/01 02:36:58;;;;;;;7.70;5.80;;;10.30;95.10;;;;;;5029197;28;20072;-70
2023/09/01 02:39:24;;;;;;;7.27;5.93;;;10.20;95.10;;;;;;5040638;28;20493;-70
2023/09/01 02:41:50;;;;;;;9.80;7.97;;;10.20;95.10;;;;;;5027234;28;20291;-70
2023/09/01 02:44:15;;;;;;;9.83;9.03;;;10.20;95.20;;;;;;5014633;28;20109;-70
2023/09/01 02:46:41;;;;;;;6.80;5.80;;;10.10;95.30;;;;;;5014616;28;20044;-70
2023/09/01 02:49:07;;;;;;;8.50;7.47;;;10.10;95.30;;;;;;4998951;28;20111;-70
2023/09/01 02:51:32;;;;;;;8.33;7.27;;;10.00;95.50;;;;;;5012432;28;20095;-70
2023/09/01 02:53:58;;;;;;;7.33;6.63;;;10.00;95.60;;;;;;5014228;28;20041;-70
2023/09/01 02:56:24;;;;;;;5.87;5.33;;;10.00;95.50;;;;;;5014591;28;20048;-70
2023/09/01 02:58:49;;;;;;;9.10;7.77;;;10.00;95.60;;;;;;5005752;28;20095;-70
2023/09/01 03:01:15;;;;;;;8.40;7.47;;;9.90;95.60;;;;;;5013704;28;20041;-70
2023/09/01 03:03:42;;;;;;;7.20;4.73;;;9.90;95.60;;;;;;5009854;28;20113;-70
2023/09/01 03:06:08;;;;;;;8.98;8.18;;;9.90;95.70;;;;;;5005499;28;20180;-70
2023/09/01 03:08:35;;;;;;;8.35;6.63;;;9.90;95.90;;;;;;5014155;28;20068;-70
2023/09/01 03:11:01;;;;;;;7.85;7.13;;;9.90;95.80;;;;;;5010428;28;20125;-70
2023/09/01 03:13:27;;;;;;;8.30;6.07;;;9.80;95.80;;;;;;5009886;28;20190;-70
2023/09/01 03:15:54;;;;;;;7.83;7.03;;;9.80;95.60;;;;;;5011043;28;20548;-70
2023/09/01 03:18:20;;;;;;;7.65;6.93;;;9.80;95.80;;;;;;5005596;28;20299;-70
2023/09/01 03:20:46;;;;;;;6.00;5.30;;;9.80;95.80;;;;;;5012786;28;20037;-71
2023/09/01 03:23:12;;;;;;;9.88;7.10;;;9.80;96.00;;;;;;5006369;28;20040;-70
2023/09/01 03:25:38;;;;;;;8.10;7.13;;;9.80;96.00;;;;;;5013577;28;20041;-70
2023/09/01 03:28:03;;;;;;;7.10;5.97;;;9.80;96.00;;;;;;5020016;28;20039;-70
2023/09/01 03:30:29;;;;;;;9.10;6.90;;;9.80;96.20;;;;;;5007883;28;20099;-70
2023/09/01 03:32:55;;;;;;;8.87;7.70;;;9.80;96.20;;;;;;5010343;28;20449;-70
2023/09/01 03:35:21;;;;;;;8.40;7.07;;;9.80;96.30;;;;;;5021329;28;20037;-70
2023/09/01 03:37:46;;;;;;;13.10;7.73;;;9.80;96.30;;;;;;5008517;28;20037;-70
2023/09/01 03:40:12;;;;;;;8.93;7.83;;;9.80;96.40;;;;;;5026576;28;20044;-70
2023/09/01 03:42:39;;;;;;;9.95;6.53;;;9.80;96.50;;;;;;5012296;28;20053;-70
2023/09/01 03:45:05;;;;;;;9.48;8.40;;;9.80;96.40;;;;;;5014398;28;20033;-70
2023/09/01 03:47:31;;;;;;;8.65;7.18;;;9.70;96.50;;;;;;5017975;28;20059;-70
2023/09/01 03:49:57;;;;;;;8.43;6.68;;;9.70;96.50;;;;;;5025023;28;20462;-70
2023/09/01 03:52:23;;;;;;;7.93;7.13;;;9.70;96.50;;;;;;5029554;28;20076;-70
2023/09/01 03:54:49;;;;;;;7.43;6.20;;;9.70;96.70;;;;;;5024697;28;20095;-70
2023/09/01 03:57:15;;;;;;;11.47;7.07;;;9.70;96.70;;;;;;5012604;28;20421;-70
2023/09/01 03:59:42;;;;;;;7.35;6.38;;;9.70;96.60;;;;;;5019511;28;20046;-70
2023/09/01 04:02:08;;;;;;;9.57;6.03;;;9.70;96.60;;;;;;5025176;28;20397;-70
2023/09/01 04:04:34;;;;;;;6.87;5.40;;;9.60;96.70;;;;;;5009992;28;20042;-70
2023/09/01 04:06:59;;;;;;;7.37;5.43;;;9.60;96.60;;;;;;5012762;28;20049;-70
2023/09/01 04:09:25;;;;;;;6.53;5.67;;;9.50;96.70;;;;;;5008985;28;20104;-70
2023/09/01 04:11:51;;;;;;;9.90;5.30;;;9.50;96.60;;;;;;4996083;28;20042;-70
2023/09/01 04:14:16;;;;;;;7.10;6.40;;;9.50;96.70;;;;;;5009514;28;20084;-71
2023/09/01 04:16:42;;;;;;;6.30;5.10;;;9.40;96.60;;;;;;4995737;28;20037;-70
2023/09/01 04:19:08;;;;;;;8.03;5.20;;;9.40;96.80;;;;;;5010021;28;20045;-70
2023/09/01 04:21:34;;;;;;;7.13;4.83;;;9.30;96.80;;;;;;5010163;28;20477;-70
2023/09/01 04:23:59;;;;;;;6.77;4.90;;;9.30;97.00;;;;;;5014897;28;20148;-70
2023/09/01 04:26:25;;;;;;;7.90;5.10;;;9.30;97.00;;;;;;5023077;28;20047;-70
2023/09/01 04:28:51;;;;;;;8.77;4.97;;;9.30;97.10;;;;;;5010573;28;20056;-70
2023/09/01 04:31:30;;;;;;;7.17;5.23;;;9.30;97.20;;;;;;5019114;28;20385;-70
2023/09/01 04:33:56;;;;;;;6.65;5.03;;;9.30;97.20;;;;;;4996508;28;20044;-70
2023/09/01 04:36:23;;;;;;;8.05;5.55;;;9.30;97.20;;;;;;5026049;28;20056;-70
2023/09/01 04:38:49;;;;;;;7.20;6.35;;;9.30;97.20;;;;;;5019804;28;20758;-70
2023/09/01 04:41:15;;;;;;;7.05;4.93;;;9.30;97.20;;;;;;5023973;28;20041;-70
2023/09/01 04:43:41;;;;;;;6.87;6.00;;;9.30;97.30;;;;;;5017409;28;20132;-70
2023/09/01 04:46:06;;;;;;;6.43;4.67;;;9.30;97.20;;;;;;5008172;28;20430;-70
2023/09/01 04:48:33;;;;;;;7.23;4.70;;;9.30;97.20;;;;;;5010596;28;20421;-70
2023/09/01 04:51:02;;;;;;;5.90;4.07;;;9.30;97.40;;;;;;4995119;28;20571;-70
2023/09/01 04:53:28;;;;;;;6.15;4.57;;;9.40;97.40;;;;;;5011519;28;20041;-70
2023/09/01 04:55:54;;;;;;;6.00;4.63;;;9.40;97.40;;;;;;5011918;28;20509;-70
2023/09/01 04:58:20;;;;;;;6.05;5.43;;;9.40;97.40;;;;;;5012350;28;20055;-70
2023/09/01 05:00:47;;;;;;;7.78;6.07;;;9.40;97.50;;;;;;5010751;28;20037;-70
2023/09/01 05:03:13;;;;;;;6.60;5.80;;;9.50;97.50;;;;;;4994994;28;20113;-70
2023/09/01 05:05:39;;;;;;;6.57;5.90;;;9.50;97.60;;;;;;5008991;28;20133;-70
2023/09/01 05:08:05;;;;;;;6.60;6.00;;;9.60;97.60;;;;;;5010982;28;20064;-70
2023/09/01 05:10:32;;;;;;;6.77;6.07;;;9.70;97.60;;;;;;5011610;28;20037;-70
2023/09/01 05:12:57;;;;;;;8.85;8.05;;;9.80;97.80;;;;;;5010983;28;20085;-70
2023/09/01 05:15:23;;;;;;;8.50;7.77;;;9.90;97.70;;;;;;4995515;28;20065;-70
2023/09/01 05:17:49;;;;;;;9.00;8.17;;;10.00;97.80;;;;;;5011064;28;20052;-70
2023/09/01 05:20:14;;;;;;;11.57;10.57;;;10.00;97.80;;;;;;5010756;28;20037;-70
2023/09/01 05:22:41;;;;;;;13.00;11.83;;;10.10;97.90;;;;;;5015672;28;20040;-70
2023/09/01 05:25:07;;;;;;;17.15;15.90;;;10.30;97.90;;;;;;4995116;28;20578;-70
2023/09/01 05:27:33;;;;;;;17.50;16.38;;;10.30;97.90;;;;;;5009902;28;20052;-70
2023/09/01 05:29:59;;;;;;;21.30;19.97;;;10.40;97.80;;;;;;5030671;28;20501;-70
2023/09/01 05:32:24;;;;;;;23.17;21.80;;;10.50;97.80;;;;;;5014495;28;20047;-70
2023/09/01 05:34:50;;;;;;;24.87;23.43;;;10.60;97.70;;;;;;5005085;28;20041;-70
2023/09/01 05:37:16;;;;;;;26.90;25.20;;;10.60;97.80;;;;;;5019066;28;20045;-70
2023/09/01 05:39:42;;;;;;;29.37;27.87;;;10.70;97.70;;;;;;5021446;28;20106;-70
2023/09/01 05:42:08;;;;;;;32.17;29.98;;;10.80;97.80;;;;;;5025991;28;20460;-70
2023/09/01 05:44:35;;;;;;;34.10;32.30;;;10.90;97.70;;;;;;5014947;28;20049;-70
2023/09/01 05:47:03;;;;;;;34.23;32.57;;;11.00;97.70;;;;;;5009923;28;20335;-70
2023/09/01 05:49:31;;;;;;;34.73;32.93;;;11.10;97.70;;;;;;4993650;28;20696;-70
2023/09/01 05:51:57;;;;;;;36.00;34.20;;;11.20;97.70;;;;;;5011091;28;20283;-70
2023/09/01 05:54:23;;;;;;;38.23;36.27;;;11.30;97.60;;;;;;5011037;28;20363;-70
2023/09/01 05:56:49;;;;;;;37.63;35.57;;;11.40;97.60;;;;;;5028437;28;20466;-70
2023/09/01 05:59:15;;;;;;;35.57;33.57;;;11.50;97.70;;;;;;5020182;28;20724;-71
2023/09/01 06:01:41;;;;;;;36.93;34.97;;;11.60;97.70;;;;;;4994674;28;20411;-71
2023/09/01 06:04:07;;;;;;;35.33;33.43;;;11.70;97.60;;;;;;5007989;28;20115;-71
2023/09/01 06:06:35;;;;;;;33.33;31.63;;;11.80;97.70;;;;;;5005599;28;20807;-71
2023/09/01 06:09:04;;;;;;;27.57;26.10;;;11.90;97.80;;;;;;5010598;28;20298;-71
2023/09/01 06:11:30;;;;;;;26.37;24.70;;;12.00;97.60;;;;;;5011531;28;20300;-71
2023/09/01 06:13:57;;;;;;;24.10;22.67;;;12.10;97.60;;;;;;5012481;28;20295;-71
2023/09/01 06:16:22;;;;;;;23.23;21.80;;;12.30;97.60;;;;;;5010559;28;20307;-71
2023/09/01 06:18:48;;;;;;;20.67;19.57;;;12.40;97.50;;;;;;5014338;28;20780;-71
2023/09/01 06:21:17;;;;;;;18.97;17.53;;;12.50;97.20;;;;;;5011889;28;20033;-71
2023/09/01 06:23:47;;;;;;;16.23;14.90;;;12.70;97.10;;;;;;5008902;28;20195;-71
2023/09/01 06:26:19;;;;;;;14.80;13.57;;;12.80;96.80;;;;;;5011778;28;20311;-71
2023/09/01 06:28:46;;;;;;;14.13;13.00;;;12.90;96.70;;;;;;5013984;28;20280;-71
2023/09/01 06:31:16;;;;;;;13.20;12.17;;;13.00;96.80;;;;;;5013104;28;20692;-71
2023/09/01 06:33:43;;;;;;;13.90;12.80;;;13.10;96.50;;;;;;5010910;28;20304;-71
2023/09/01 06:36:13;;;;;;;11.07;10.17;;;13.20;96.50;;;;;;5014658;28;20315;-71
2023/09/01 06:38:42;;;;;;;10.27;9.37;;;13.40;96.20;;;;;;5010989;28;20846;-71
2023/09/01 06:41:08;;;;;;;8.87;8.23;;;13.50;96.00;;;;;;5017901;28;20283;-70
2023/09/01 06:43:34;;;;;;;9.23;8.50;;;13.60;95.40;;;;;;5012452;28;20300;-70
2023/09/01 06:46:00;;;;;;;10.70;9.90;;;13.60;94.90;;;;;;5006198;28;20319;-70
2023/09/01 06:48:26;;;;;;;9.60;8.77;;;13.70;94.80;;;;;;5015525;28;20113;-70
2023/09/01 06:50:51;;;;;;;8.57;7.77;;;13.80;94.70;;;;;;4990924;28;20080;-70
2023/09/01 06:53:17;;;;;;;9.53;8.83;;;13.90;94.50;;;;;;5014032;28;20046;-70
2023/09/01 06:55:47;;;;;;;9.60;8.63;;;13.90;94.60;;;;;;5014987;28;20038;-70
2023/09/01 06:58:13;;;;;;;9.87;8.87;;;14.00;94.40;;;;;;5012442;28;20066;-70
2023/09/01 07:00:39;;;;;;;11.47;10.67;;;14.10;93.80;;;;;;5018252;28;20279;-70
2023/09/01 07:03:05;;;;;;;7.77;7.13;;;14.20;93.30;;;;;;5012897;28;20350;-70
2023/09/01 07:05:30;;;;;;;8.70;7.90;;;14.30;93.50;;;;;;5017414;28;20041;-70
2023/09/01 07:07:56;;;;;;;12.47;11.57;;;14.30;93.20;;;;;;5004100;28;20307;-70
2023/09/01 07:10:22;;;;;;;20.77;19.50;;;14.40;92.90;;;;;;5024653;28;20048;-70
2023/09/01 07:12:47;;;;;;;17.60;16.50;;;14.40;92.90;;;;;;5016423;28;20092;-70
2023/09/01 07:15:13;;;;;;;19.93;18.93;;;14.50;92.60;;;;;;5019881;28;20038;-70
2023/09/01 07:17:39;;;;;;;15.73;14.67;;;14.70;92.90;;;;;;5022376;28;20045;-70
2023/09/01 07:20:05;;;;;;;17.37;16.27;;;14.80;92.90;;;;;;5024789;28;20448;-70
2023/09/01 07:22:31;;;;;;;15.70;14.70;;;15.00;92.50;;;;;;5022896;28;20041;-70
2023/09/01 07:24:57;;;;;;;17.63;16.23;;;15.10;92.10;;;;;;5019082;28;20303;-70
2023/09/01 07:27:22;;;;;;;13.67;12.63;;;15.10;91.60;;;;;;5011178;28;20033;-70
2023/09/01 07:29:48;;;;;;;12.70;11.90;;;15.20;91.70;;;;;;5006693;28;20112;-70
2023/09/01 07:32:16;;;;;;;12.23;11.23;;;15.30;91.50;;;;;;5020469;28;20110;-70
2023/09/01 07:34:41;;;;;;;11.40;10.60;;;15.30;91.50;;;;;;5027325;28;20357;-70
2023/09/01 07:37:07;;;;;;;20.00;18.73;;;15.40;91.40;;;;;;5027386;28;20342;-70
2023/09/01 07:39:35;;;;;;;8.53;7.93;;;15.40;91.20;;;;;;5027645;28;20032;-70
2023/09/01 07:42:01;;;;;;;15.23;14.33;;;15.50;90.70;;;;;;5011194;28;20295;-70
2023/09/01 07:44:27;;;;;;;20.90;19.50;;;15.60;90.90;;;;;;5020158;28;20280;-70
2023/09/01 07:46:53;;;;;;;18.97;17.83;;;15.70;90.80;;;;;;5022673;28;20287;-70
2023/09/01 07:49:19;;;;;;;21.80;20.53;;;15.80;89.90;;;;;;5015939;28;20103;-70
2023/09/01 07:51:44;;;;;;;25.17;23.67;;;15.90;90.30;;;;;;5031927;28;20291;-70
2023/09/01 07:54:10;;;;;;;18.73;17.27;;;15.90;88.90;;;;;;5031447;28;20120;-71
2023/09/01 07:56:36;;;;;;;24.50;23.03;;;16.00;89.10;;;;;;5030669;28;20042;-70
2023/09/01 07:59:03;;;;;;;24.60;23.03;;;16.10;88.30;;;;;;5018799;28;20034;-70
2023/09/01 08:01:29;;;;;;;23.63;22.43;;;16.20;87.80;;;;;;5010759;28;20037;-70
2023/09/01 08:03:59;;;;;;;38.47;36.53;;;16.30;88.20;;;;;;5014440;28;20396;-70
2023/09/01 08:06:26;;;;;;;19.23;18.13;;;16.50;88.40;;;;;;5015725;28;20324;-70
2023/09/01 08:08:52;;;;;;;24.67;23.33;;;16.60;88.20;;;;;;5021199;28;20330;-70
2023/09/01 08:11:18;;;;;;;26.67;25.10;;;16.70;86.90;;;;;;5014595;28;20288;-70
2023/09/01 08:13:43;;;;;;;31.73;30.03;;;16.80;86.80;;;;;;5020985;28;20370;-70
2023/09/01 08:16:09;;;;;;;30.90;29.13;;;17.00;87.10;;;;;;5024296;28;20409;-70
2023/09/01 08:18:35;;;;;;;17.67;16.63;;;17.10;86.20;;;;;;5019517;28;20055;-70
2023/09/01 08:21:05;;;;;;;39.90;38.03;;;17.20;84.80;;;;;;5019662;28;20064;-70
2023/09/01 08:23:31;;;;;;;51.70;49.40;;;17.40;84.10;;;;;;5016469;28;20425;-70
2023/09/01 08:25:56;;;;;;;45.47;43.17;;;17.50;85.00;;;;;;5018045;28;20371;-70
2023/09/01 08:28:22;;;;;;;45.77;43.60;;;17.60;85.10;;;;;;5013602;28;20076;-70
2023/09/01 08:30:48;;;;;;;49.47;47.00;;;17.60;83.40;;;;;;5022881;28;20049;-70
2023/09/01 08:33:14;;;;;;;53.57;50.80;;;17.60;82.70;;;;;;5009032;28;20052;-70
2023/09/01 08:35:39;;;;;;;50.43;47.83;;;17.60;83.10;;;;;;5024523;28;20041;-70
2023/09/01 08:38:05;;;;;;;46.90;44.67;;;17.70;83.40;;;;;;5019846;28;20330;-70
2023/09/01 08:40:31;;;;;;;63.53;60.60;;;17.80;83.30;;;;;;5003601;28;20454;-70
2023/09/01 08:42:57;;;;;;;70.73;67.40;;;17.90;82.40;;;;;;5015837;28;20096;-70
2023/09/01 08:45:25;;;;;;;49.90;47.53;;;18.00;82.50;;;;;;5010965;28;20038;-71
2023/09/01 08:47:53;;;;;;;53.10;50.77;;;18.00;81.50;;;;;;5012941;28;20033;-71
2023/09/01 08:50:20;;;;;;;56.77;53.93;;;18.10;79.90;;;;;;5019197;28;20095;-71
2023/09/01 08:52:47;;;;;;;57.57;54.67;;;18.00;79.90;;;;;;5026132;28;20134;-71
2023/09/01 08:55:15;;;;;;;66.97;64.07;;;17.90;80.50;;;;;;5007888;28;20287;-71
2023/09/01 08:57:41;;;;;;;56.13;53.50;;;17.90;80.20;;;;;;5016263;28;20052;-71
2023/09/01 09:00:08;;;;;;;65.70;62.63;;;17.90;80.20;;;;;;5016041;28;20038;-71
2023/09/01 09:02:35;;;;;;;57.50;54.83;;;17.90;80.30;;;;;;5023584;28;20504;-71
2023/09/01 09:05:02;;;;;;;47.17;45.03;;;18.00;80.50;;;;;;5008772;28;20041;-71
2023/09/01 09:07:29;;;;;;;45.97;43.57;;;18.00;80.10;;;;;;5017192;28;20073;-71
2023/09/01 09:09:59;;;;;;;51.73;49.13;;;18.00;79.30;;;;;;5028732;28;20505;-71
2023/09/01 09:12:38;;;;;;;52.90;50.50;;;18.00;78.30;;;;;;5024315;28;20052;-71
2023/09/01 09:15:05;;;;;;;51.17;48.87;;;18.00;79.10;;;;;;5015412;28;20049;-71
2023/09/01 09:17:40;;;;;;;56.27;53.80;;;18.00;78.30;;;;;;5014992;28;20494;-71
2023/09/01 09:20:06;;;;;;;44.22;42.05;;;18.10;78.80;;;;;;5020948;28;20120;-71
2023/09/01 09:22:48;;;;;;;55.40;52.70;;;18.10;78.20;;;;;;5022191;28;20048;-71
2023/09/01 09:25:31;;;;;;;45.40;43.30;;;18.10;78.30;;;;;;5000298;28;20034;-71
2023/09/01 09:27:58;;;;;;;42.17;40.27;;;18.00;77.50;;;;;;5009003;28;20397;-70
2023/09/01 09:30:28;;;;;;;44.47;42.23;;;18.00;77.80;;;;;;5009098;28;20564;-71
2023/09/01 09:33:05;;;;;;;46.40;44.33;;;18.00;78.50;;;;;;5007373;28;20049;-71
2023/09/01 09:35:34;;;;;;;13.03;12.33;;;18.00;78.10;;;;;;5005783;28;20072;-71
2023/09/01 09:38:00;;;;;;;11.97;11.17;;;18.00;77.20;;;;;;5020174;28;20033;-71
2023/09/01 09:40:26;;;;;;;13.83;12.80;;;17.90;76.80;;;;;;5021642;28;20090;-71
2023/09/01 09:42:56;;;;;;;7.60;7.10;;;17.90;77.50;;;;;;5038308;28;20049;-71
2023/09/01 09:45:24;;;;;;;6.97;6.37;;;17.90;76.70;;;;;;5011384;28;20098;-71
2023/09/01 09:47:50;;;;;;;13.43;12.63;;;17.80;77.40;;;;;;5012333;28;20405;-71
2023/09/01 09:50:17;;;;;;;14.60;13.90;;;17.80;77.90;;;;;;5012437;28;20045;-71
2023/09/01 09:52:59;;;;;;;11.47;10.47;;;17.80;78.20;;;;;;5012693;28;20058;-71
2023/09/01 09:55:29;;;;;;;14.03;13.00;;;17.90;77.80;;;;;;5015235;28;20741;-71
2023/09/01 09:58:07;;;;;;;24.47;23.13;;;17.90;77.40;;;;;;5029272;28;20438;-71
2023/09/01 10:00:57;;;;;;;14.00;13.00;;;18.00;77.40;;;;;;5012394;28;20505;-71
2023/09/01 10:03:25;;;;;;;42.87;40.77;;;18.10;77.30;;;;;;5012674;28;20053;-71
2023/09/01 10:05:53;;;;;;;7.23;6.30;;;18.30;74.90;;;;;;5003457;28;20029;-71
2023/09/01 10:08:21;;;;;;;46.30;44.03;;;18.30;74.70;;;;;;5014418;28;20053;-71
2023/09/01 10:10:46;;;;;;;21.53;20.43;;;18.30;74.50;;;;;;5009291;28;20560;-71
2023/09/01 10:13:12;;;;;;;16.30;15.40;;;18.30;75.30;;;;;;5018747;28;20120;-71
2023/09/01 10:15:39;;;;;;;9.30;8.80;;;18.40;74.40;;;;;;5018330;28;20551;-71
2023/09/01 10:18:08;;;;;;;9.70;9.07;;;18.50;75.20;;;;;;5015412;28;20523;-71
2023/09/01 10:20:36;;;;;;;16.30;15.37;;;18.60;75.20;;;;;;5013884;28;20417;-71
2023/09/01 10:23:03;;;;;;;7.30;6.80;;;18.80;74.70;;;;;;5015173;28;20041;-71
2023/09/01 10:25:30;;;;;;;20.37;19.30;;;19.00;75.30;;;;;;5015469;28;20763;-71
2023/09/01 10:28:10;;;;;;;22.57;21.37;;;19.30;73.40;;;;;;4995115;28;20069;-71
2023/09/01 10:30:45;;;;;;;12.77;11.90;;;19.60;73.00;;;;;;5013778;28;20041;-71
2023/09/01 10:33:27;;;;;;;20.73;19.43;;;19.90;72.40;;;;;;5020177;28;20041;-71
2023/09/01 10:35:54;;;;;;;17.70;16.67;;;20.10;70.70;;;;;;5027301;28;20040;-71
2023/09/01 10:38:22;;;;;;;22.33;21.30;;;20.30;70.00;;;;;;5005950;28;20394;-71
2023/09/01 10:40:53;;;;;;;24.83;23.50;;;20.50;70.30;;;;;;5018775;28;20044;-71
2023/09/01 10:43:37;;;;;;;10.97;10.33;;;20.80;69.80;;;;;;5000007;28;20370;-71
2023/09/01 10:46:15;;;;;;;21.40;20.17;;;21.00;69.20;;;;;;5014205;28;20053;-71
2023/09/01 10:48:51;;;;;;;21.43;20.27;;;21.00;69.40;;;;;;5021523;28;20815;-71
2023/09/01 10:51:18;;;;;;;12.33;11.57;;;20.90;67.30;;;;;;5004695;28;20517;-71
2023/09/01 10:53:45;;;;;;;8.13;7.53;;;20.80;68.20;;;;;;5001648;28;20041;-71
2023/09/01 10:56:15;;;;;;;9.77;9.13;;;20.80;68.10;;;;;;5019764;28;20076;-71
2023/09/01 10:58:43;;;;;;;17.77;16.63;;;20.90;68.60;;;;;;5014470;28;20036;-71
2023/09/01 11:01:41;;;;;;;17.80;16.80;;;21.00;68.50;;;;;;5018734;28;20044;-71
2023/09/01 11:04:22;;;;;;;10.53;9.67;;;21.10;67.20;;;;;;5017714;28;20436;-71
2023/09/01 11:06:56;;;;;;;11.20;10.40;;;21.30;65.20;;;;;;5018395;28;20069;-71
2023/09/01 11:09:34;;;;;;;;;;;21.40;66.10;;;;;;5010534;28;20115;-72
2023/09/01 11:12:06;;;;;;;11.60;10.50;;;21.50;65.10;;;;;;5024878;28;19920;-71
2023/09/01 11:14:34;;;;;;;18.97;17.57;;;21.60;66.90;;;;;;5007189;28;20045;-71
2023/09/01 11:17:00;;;;;;;13.03;12.00;;;21.60;65.50;;;;;;5012836;28;20041;-72
2023/09/01 11:19:26;;;;;;;16.87;15.50;;;21.80;66.30;;;;;;4994803;28;20052;-72
2023/09/01 11:21:52;;;;;;;23.73;22.30;;;21.90;65.80;;;;;;5013334;28;20444;-72
2023/09/01 11:24:21;;;;;;;13.30;12.23;;;22.20;65.60;;;;;;5029046;28;20107;-72
2023/09/01 11:26:51;;;;;;;33.87;31.93;;;22.20;63.90;;;;;;5013237;28;20052;-72
2023/09/01 11:29:21;;;;;;;16.00;14.70;;;22.10;62.20;;;;;;5012504;28;20045;-71
2023/09/01 11:31:47;;;;;;;17.20;15.93;;;21.90;63.20;;;;;;5010305;28;20073;-71
2023/09/01 11:34:15;;;;;;;85.77;81.80;;;21.70;63.90;;;;;;5012154;28;20051;-71
2023/09/01 11:36:45;;;;;;;15.70;14.70;;;21.60;65.20;;;;;;5011150;28;20045;-71
2023/09/01 11:39:11;;;;;;;82.37;78.30;;;21.60;64.60;;;;;;5010976;28;20042;-71
2023/09/01 11:41:39;;;;;;;44.13;41.70;;;21.50;63.50;;;;;;5012386;28;20393;-72
2023/09/01 11:44:04;;;;;;;54.90;52.03;;;21.40;64.60;;;;;;5011074;28;20099;-72
2023/09/01 11:46:32;;;;;;;35.93;33.90;;;21.30;65.30;;;;;;5007054;28;20050;-71
2023/09/01 11:48:58;;;;;;;40.50;38.23;;;21.30;65.20;;;;;;5001494;28;20061;-71
2023/09/01 11:51:31;;;;;;;34.03;32.20;;;21.30;64.10;;;;;;5001957;28;20124;-71
2023/09/01 11:53:57;;;;;;;40.80;38.50;;;21.40;64.10;;;;;;5016579;28;20138;-71
2023/09/01 11:56:23;;;;;;;50.13;47.30;;;21.40;65.00;;;;;;5013808;28;20038;-71
2023/09/01 11:58:50;;;;;;;47.40;44.67;;;21.60;65.50;;;;;;5018496;28;20080;-71
2023/09/01 12:01:20;;;;;;;39.43;37.27;;;21.80;63.80;;;;;;5004562;28;20523;-71
2023/09/01 12:03:54;;;;;;;30.00;27.93;;;21.90;63.80;;;;;;4995674;28;20119;-71
2023/09/01 12:06:27;;;;;;;34.23;32.37;;;21.90;63.20;;;;;;5002154;28;20196;-72
2023/09/01 12:09:08;;;;;;;37.97;35.97;;;21.90;61.70;;;;;;5008397;28;20041;-71
2023/09/01 12:11:33;;;;;;;24.70;22.63;;;21.60;62.50;;;;;;4996960;28;20554;-71
2023/09/01 12:14:26;;;;;;;17.33;16.17;;;21.40;64.00;;;;;;5012955;28;20156;-71
2023/09/01 12:16:55;;;;;;;18.10;16.83;;;21.50;65.20;;;;;;4998532;28;20037;-71
2023/09/01 12:19:25;;;;;;;18.97;17.83;;;21.50;64.70;;;;;;5008448;28;20413;-71
2023/09/01 12:21:53;;;;;;;12.10;11.20;;;21.60;64.40;;;;;;5017052;28;20029;-71
2023/09/01 12:24:19;;;;;;;7.70;7.10;;;21.60;64.30;;;;;;4999362;28;20053;-71
2023/09/01 12:26:46;;;;;;;9.87;9.00;;;21.50;64.90;;;;;;5002014;28;20676;-71
2023/09/01 12:29:12;;;;;;;9.47;8.20;;;21.70;65.60;;;;;;4994020;28;20367;-71
2023/09/01 12:31:38;;;;;;;9.77;8.97;;;21.80;65.30;;;;;;5013508;28;20096;-71
2023/09/01 12:34:03;;;;;;;14.80;13.63;;;21.80;64.00;;;;;;5016472;28;20041;-71
2023/09/01 12:36:30;;;;;;;15.67;14.37;;;21.90;64.80;;;;;;5019266;28;20050;-71
2023/09/01 12:38:55;;;;;;;11.53;10.67;;;22.00;63.40;;;;;;5019759;28;20128;-71
2023/09/01 12:41:21;;;;;;;26.67;25.17;;;22.00;63.40;;;;;;5007471;28;20116;-71